KORB

Details ICAO KORB
Name ORR RGNL
Region United States
Timezone America/Chicago (UTC-6.0)
Plans Departing 1
Arriving 1
Stats Elevation 1,311 ft / 400 m (AMSL)
Location 48.015920° -92.856047°
Runways 1
Magnetic Variation 0.530° W
Sunrise 2017-12-13 13:54:40 UTC / 2017-12-13 07:54:40 Local
Sunset 2017-12-13 22:19:39 UTC / 2017-12-13 16:19:39 Local
Advertisement - Login to hide

Runways

ID Width Length Bearing (true) Bearing (mag) Surface Threshold Offset Overrun Length
13 75 ft / 23 m 3,996 ft / 1,218 m 138.22° 138.75° Asphalt 0 ft / 0 m 0 ft / 0 m
31 75 ft / 23 m 3,996 ft / 1,218 m 318.23° 318.76° Asphalt 0 ft / 0 m 0 ft / 0 m

Map

Weather


0- 5 10 15 20 25 30 35+ Temperature / ° C

Clouds and Precipitation
Forecast for 2017-12-13 12:00 UTC. Updated 10 minutes ago

Ground ~20,000 ft ~40,000 ft Winds

METAR

KORB 131133Z AUTO 00000KT 5SM -SN OVC021 M09/M11 A2945 RMK AO2

TAF

Not found

Frequencies

Recorded 118.32 MHz AWOS 3
Unicom 122.80 MHz UNICOM
Warning: Do not use this data for real-world aviation or navigation. No guarantee of current accuracy is given.